createdAt,value
2023-03-27T00:03:40.127Z,89.80
2023-03-27T00:07:39.923Z,77.34
2023-03-27T00:11:39.896Z,108.21
2023-03-27T00:15:39.874Z,115.64
2023-03-27T00:19:39.871Z,58.83
2023-03-27T00:23:40.025Z,86.22
2023-03-27T00:27:39.879Z,76.26
2023-03-27T00:31:39.888Z,89.83
2023-03-27T00:35:39.961Z,51.39
2023-03-27T00:39:39.977Z,79.70
2023-03-27T00:43:39.949Z,90.14
2023-03-27T00:47:39.969Z,90.97
2023-03-27T00:51:39.942Z,97.57
2023-03-27T00:55:39.934Z,75.95
2023-03-27T00:59:39.952Z,70.03
2023-03-27T01:03:40.033Z,88.13
2023-03-27T01:07:39.979Z,104.26
2023-03-27T01:11:39.985Z,74.23
2023-03-27T01:15:40.068Z,64.10
2023-03-27T01:19:39.961Z,75.02
2023-03-27T01:24:00.276Z,77.33
2023-03-27T01:27:40.928Z,85.71
2023-03-27T01:31:39.953Z,57.62
2023-03-27T01:35:39.849Z,74.36
2023-03-27T01:39:39.815Z,61.67
2023-03-27T01:43:39.791Z,63.40
2023-03-27T01:47:39.775Z,48.88
2023-03-27T01:51:39.695Z,43.34
2023-03-27T01:55:39.654Z,65.08
2023-03-27T01:59:39.636Z,69.79
2023-03-27T02:03:39.699Z,70.26
2023-03-27T02:07:39.661Z,66.35
2023-03-27T02:11:39.683Z,63.84
2023-03-27T02:15:39.763Z,55.49
2023-03-27T02:19:39.653Z,65.34
2023-03-27T02:23:39.660Z,77.95
2023-03-27T02:27:39.654Z,64.61
2023-03-27T02:31:39.721Z,51.03
2023-03-27T02:35:39.666Z,69.63
2023-03-27T02:39:39.667Z,84.81
2023-03-27T02:43:39.704Z,60.59
2023-03-27T02:47:39.764Z,40.77
2023-03-27T02:51:39.727Z,69.14
2023-03-27T02:55:39.716Z,68.84
2023-03-27T02:59:39.740Z,59.24
2023-03-27T03:03:39.764Z,56.82
2023-03-27T03:07:39.765Z,70.49
2023-03-27T03:11:39.815Z,75.22
2023-03-27T03:15:39.806Z,73.61
2023-03-27T03:19:39.816Z,49.37
2023-03-27T03:23:39.837Z,40.25
2023-03-27T03:27:39.859Z,31.98
2023-03-27T03:31:39.890Z,44.99
2023-03-27T03:35:39.920Z,42.22
2023-03-27T03:39:39.931Z,41.18
2023-03-27T03:43:39.915Z,55.92
2023-03-27T03:47:40.026Z,52.67
2023-03-27T03:51:39.934Z,74.94
2023-03-27T03:55:39.974Z,57.70
2023-03-27T03:59:39.982Z,53.07
2023-03-27T04:03:40.099Z,77.04
2023-03-27T04:07:40.322Z,78.70
2023-03-27T04:11:40.042Z,94.16
2023-03-27T04:15:40.092Z,88.59
2023-03-27T04:19:40.088Z,109.57
2023-03-27T04:23:40.111Z,90.92
2023-03-27T04:27:40.139Z,105.72
2023-03-27T04:31:40.211Z,86.37
2023-03-27T04:35:40.215Z,52.45
2023-03-27T04:39:40.218Z,73.59
2023-03-27T04:43:40.285Z,73.11
2023-03-27T04:47:40.306Z,84.11
2023-03-27T04:51:40.254Z,105.86
2023-03-27T04:55:40.274Z,105.75
2023-03-27T04:59:40.293Z,96.91
2023-03-27T05:03:40.387Z,94.48
2023-03-27T05:07:40.302Z,121.40
2023-03-27T05:11:40.448Z,126.23
2023-03-27T05:15:40.354Z,122.45
2023-03-27T05:19:40.314Z,144.92
2023-03-27T05:23:40.300Z,139.92
2023-03-27T05:27:40.400Z,160.57
2023-03-27T05:31:40.323Z,162.46
2023-03-27T05:35:40.388Z,182.31
2023-03-27T05:39:40.353Z,264.48
2023-03-27T05:43:40.443Z,236.88
2023-03-27T05:47:40.697Z,246.49
2023-03-27T05:51:47.276Z,250.00
2023-03-27T05:55:41.605Z,254.91
2023-03-27T05:59:40.525Z,248.88
2023-03-27T06:03:40.645Z,247.97
2023-03-27T06:07:43.129Z,250.00
2023-03-27T06:11:40.662Z,245.62
2023-03-27T06:15:40.639Z,234.37
2023-03-27T06:19:40.854Z,234.28
2023-03-27T06:23:40.563Z,233.59
2023-03-27T06:27:40.537Z,230.43
2023-03-27T06:31:40.922Z,238.73
2023-03-27T06:35:40.887Z,190.61
2023-03-27T06:39:40.871Z,248.14
2023-03-27T06:43:40.380Z,196.82
2023-03-27T06:47:51.641Z,216.68
2023-03-27T06:51:41.300Z,213.18
2023-03-27T06:55:40.379Z,220.26
2023-03-27T06:59:40.382Z,213.39
2023-03-27T07:03:40.207Z,190.54
2023-03-27T07:07:41.548Z,206.85
2023-03-27T07:11:40.368Z,210.66
2023-03-27T07:15:40.412Z,208.15
2023-03-27T07:19:40.540Z,202.50
2023-03-27T07:23:40.612Z,205.26
2023-03-27T07:27:40.697Z,186.71
2023-03-27T07:31:55.804Z,185.62
2023-03-27T07:35:41.921Z,139.76
2023-03-27T07:39:40.729Z,181.35
2023-03-27T07:43:40.830Z,196.34
2023-03-27T07:47:40.990Z,207.09
2023-03-27T07:51:41.418Z,192.48
2023-03-27T07:55:41.088Z,202.23
2023-03-27T07:59:41.104Z,211.80
2023-03-27T08:03:41.243Z,211.50
2023-03-27T08:07:41.169Z,212.25
2023-03-27T08:11:41.168Z,217.30
2023-03-27T08:15:41.187Z,155.84
2023-03-27T08:19:41.432Z,71.19
2023-03-27T08:23:41.501Z,121.34
2023-03-27T08:27:41.713Z,161.89
2023-03-27T08:31:41.916Z,187.10
2023-03-27T08:35:42.046Z,197.53
2023-03-27T08:39:42.440Z,158.71
2023-03-27T08:43:42.312Z,168.99
2023-03-27T08:47:42.406Z,181.67
2023-03-27T08:51:42.504Z,171.21
2023-03-27T08:55:42.927Z,166.46
2023-03-27T08:59:42.766Z,154.51
2023-03-27T09:03:43.042Z,154.83
2023-03-27T09:07:43.442Z,151.12
2023-03-27T09:11:43.211Z,148.38
2023-03-27T09:15:43.364Z,142.36
2023-03-27T09:19:43.921Z,131.65
2023-03-27T09:23:43.928Z,115.43
2023-03-27T15:24:49.928Z,25.00
2023-03-27T15:25:49.901Z,25.00
2023-03-27T15:26:49.880Z,25.00
2023-03-27T15:27:49.890Z,25.00
2023-03-27T15:28:49.885Z,25.00
2023-03-27T15:29:49.897Z,31.51
2023-03-27T15:30:49.877Z,47.61
2023-03-27T15:31:49.858Z,25.99
2023-03-27T15:32:49.878Z,43.79
2023-03-27T15:33:49.829Z,61.69
2023-03-27T15:34:49.846Z,70.80
2023-03-27T15:35:49.894Z,52.11
2023-03-27T15:36:49.804Z,65.40
2023-03-27T15:37:49.812Z,66.95
2023-03-27T15:38:49.789Z,68.77
2023-03-27T15:39:49.798Z,58.30
2023-03-27T15:40:49.779Z,59.39
2023-03-27T15:41:49.786Z,53.64
2023-03-27T15:42:49.762Z,48.91
2023-03-27T15:43:49.751Z,47.03
2023-03-27T15:44:49.772Z,46.35
2023-03-27T15:45:49.745Z,54.12
2023-03-27T15:46:49.796Z,61.80
2023-03-27T15:47:49.798Z,62.41
2023-03-27T15:48:49.736Z,58.22
2023-03-27T15:49:49.735Z,66.28
2023-03-27T15:50:49.719Z,58.48
2023-03-27T15:51:49.725Z,58.90
2023-03-27T15:52:49.728Z,54.91
2023-03-27T15:53:49.697Z,58.44
2023-03-27T15:54:49.696Z,57.07
2023-03-27T15:55:49.678Z,66.15
2023-03-27T15:56:49.692Z,59.92
2023-03-27T15:57:49.665Z,73.77
2023-03-27T15:58:49.653Z,74.35
2023-03-27T15:59:52.335Z,75.69
2023-03-27T16:00:49.649Z,75.57
2023-03-27T16:01:49.680Z,76.83
2023-03-27T16:02:49.678Z,76.55
2023-03-27T16:03:49.745Z,77.41
2023-03-27T16:04:49.602Z,82.84
2023-03-27T16:05:49.610Z,86.24
2023-03-27T16:06:49.597Z,78.60
2023-03-27T16:07:49.583Z,77.25
2023-03-27T16:08:49.574Z,81.91
2023-03-27T16:09:49.581Z,83.49
2023-03-27T16:10:49.556Z,77.50
2023-03-27T16:11:49.574Z,83.72
2023-03-27T16:12:49.537Z,91.94
2023-03-27T16:13:49.539Z,91.21
2023-03-27T16:14:49.537Z,77.92
2023-03-27T16:15:49.560Z,90.33
2023-03-27T16:16:49.520Z,83.99
2023-03-27T16:17:49.563Z,90.09
2023-03-27T16:18:49.493Z,89.66
2023-03-27T16:19:49.504Z,83.37
2023-03-27T16:20:49.507Z,90.13
2023-03-27T16:21:49.494Z,97.95
2023-03-27T16:22:49.463Z,98.79
2023-03-27T16:23:49.462Z,84.00
2023-03-27T16:24:49.477Z,83.37
2023-03-27T16:25:49.463Z,87.91
2023-03-27T16:26:49.439Z,85.69
2023-03-27T16:27:49.446Z,84.27
2023-03-27T16:28:49.463Z,78.83
2023-03-27T16:29:49.530Z,70.08
2023-03-27T16:30:49.568Z,80.13
2023-03-27T16:31:49.648Z,70.36
2023-03-27T16:32:49.790Z,58.91
2023-03-27T16:33:49.759Z,57.27
2023-03-27T16:34:49.811Z,55.91
2023-03-27T16:35:49.873Z,54.71
2023-03-27T16:36:49.924Z,58.91
2023-03-27T16:37:49.993Z,59.73
2023-03-27T16:38:50.028Z,67.65
2023-03-27T16:39:50.096Z,59.48
2023-03-27T16:40:50.136Z,56.74
2023-03-27T16:41:50.185Z,76.13
2023-03-27T16:42:50.235Z,59.26
2023-03-27T16:43:50.353Z,59.15
2023-03-27T16:44:50.345Z,62.61
2023-03-27T16:45:50.463Z,52.82
2023-03-27T16:46:50.505Z,45.64
2023-03-27T16:47:53.176Z,52.61
2023-03-27T16:48:50.523Z,47.02
2023-03-27T16:50:03.619Z,50.00
2023-03-27T16:50:51.486Z,50.04
2023-03-27T16:51:50.496Z,51.13
2023-03-27T16:52:51.116Z,47.00
2023-03-27T16:53:50.476Z,47.67
2023-03-27T16:54:50.476Z,52.07
2023-03-27T16:55:50.445Z,47.17
2023-03-27T16:56:50.469Z,42.17
2023-03-27T16:57:50.481Z,54.95
2023-03-27T16:58:50.438Z,54.15
2023-03-27T16:59:50.463Z,33.82
2023-03-27T17:00:50.551Z,41.67
2023-03-27T17:01:50.574Z,48.89
2023-03-27T17:02:50.640Z,51.13
2023-03-27T17:03:50.673Z,38.24
2023-03-27T17:04:50.759Z,43.63
2023-03-27T17:05:50.774Z,54.54
2023-03-27T17:06:50.834Z,47.14
2023-03-27T17:07:50.861Z,58.73
2023-03-27T17:08:50.915Z,50.10
2023-03-27T17:09:50.957Z,35.81
2023-03-27T17:10:51.017Z,27.40
2023-03-27T17:11:51.090Z,30.65
2023-03-27T17:12:51.124Z,26.92
2023-03-27T17:13:51.184Z,27.87
2023-03-27T17:14:51.233Z,43.55
2023-03-27T17:15:51.305Z,42.13
2023-03-27T17:16:51.375Z,37.76
2023-03-27T17:17:51.446Z,43.91
2023-03-27T17:18:51.474Z,42.16
2023-03-27T17:19:51.520Z,25.00
2023-03-27T17:20:51.560Z,40.90
2023-03-27T17:21:51.644Z,25.13
2023-03-27T17:22:51.674Z,38.54
2023-03-27T17:23:51.743Z,39.12
2023-03-27T17:24:56.715Z,33.50
2023-03-27T17:25:52.791Z,33.61
2023-03-27T17:26:51.770Z,35.61
2023-03-27T17:27:51.777Z,36.31
2023-03-27T17:28:51.770Z,35.88
2023-03-27T17:29:51.754Z,33.72
2023-03-27T17:31:01.435Z,35.59
2023-03-27T17:31:52.793Z,35.78
2023-03-27T17:32:51.768Z,36.35
2023-03-27T17:33:52.140Z,36.36
2023-03-27T17:34:51.750Z,38.06
2023-03-27T17:35:51.730Z,28.56
2023-03-27T17:36:54.431Z,53.14
2023-03-27T17:37:51.700Z,43.11
2023-03-27T17:38:51.688Z,35.83
2023-03-27T17:39:51.692Z,33.78
2023-03-27T17:40:51.723Z,41.95
2023-03-27T17:41:51.779Z,29.21
2023-03-27T17:42:51.656Z,39.08
2023-03-27T17:43:51.665Z,45.48
2023-03-27T17:44:51.654Z,42.50
2023-03-27T17:45:51.637Z,42.93
2023-03-27T17:46:51.799Z,42.85
2023-03-27T17:47:51.655Z,34.59
2023-03-27T17:48:51.627Z,39.32
2023-03-27T17:49:51.612Z,28.37
2023-03-27T17:51:01.140Z,34.94
2023-03-27T17:51:52.606Z,35.06
2023-03-27T17:52:51.609Z,35.39
2023-03-27T17:53:51.577Z,34.68
2023-03-27T17:54:51.567Z,32.40
2023-03-27T17:55:51.569Z,45.38
2023-03-27T17:56:51.657Z,44.22
2023-03-27T17:58:02.015Z,28.63
2023-03-27T17:58:52.558Z,28.68
2023-03-27T17:59:51.536Z,29.43
2023-03-27T18:00:51.543Z,30.87
2023-03-27T18:01:51.630Z,25.24
2023-03-27T18:02:51.631Z,25.96
2023-03-27T18:03:51.703Z,32.71
2023-03-27T18:04:51.502Z,36.83
2023-03-27T18:05:51.488Z,25.00
2023-03-27T18:06:51.489Z,39.55
2023-03-27T18:07:51.484Z,42.21
2023-03-27T18:08:51.551Z,37.76
2023-03-27T18:09:51.590Z,46.68
2023-03-27T18:10:51.717Z,59.21
2023-03-27T18:11:51.716Z,55.06
2023-03-27T18:12:51.751Z,49.90
2023-03-27T18:13:51.814Z,50.16
2023-03-27T18:14:51.876Z,50.96
2023-03-27T18:15:51.977Z,45.34
2023-03-27T18:16:51.964Z,48.83
2023-03-27T18:17:52.077Z,63.62
2023-03-27T18:18:52.083Z,75.31
2023-03-27T18:19:52.131Z,65.68
2023-03-27T18:20:52.197Z,69.84
2023-03-27T18:21:52.254Z,59.33
2023-03-27T18:22:52.295Z,49.76
2023-03-27T18:24:52.387Z,50.25
2023-03-27T18:25:52.429Z,45.11
2023-03-27T18:26:52.535Z,47.71
2023-03-27T18:27:52.568Z,55.21
2023-03-27T18:28:52.599Z,54.83
2023-03-27T18:29:52.653Z,50.64
2023-03-27T18:30:52.693Z,39.81
2023-03-27T18:31:52.717Z,32.36
2023-03-27T18:32:52.758Z,38.01
2023-03-27T18:33:52.704Z,32.80
2023-03-27T18:34:52.681Z,27.22
2023-03-27T18:35:52.690Z,32.62
2023-03-27T18:36:52.670Z,30.73
2023-03-27T18:37:52.675Z,25.31
2023-03-27T18:38:52.641Z,33.82
2023-03-27T18:39:52.642Z,25.00
2023-03-27T18:40:52.612Z,29.04
2023-03-27T18:41:52.638Z,40.93
2023-03-27T18:42:52.764Z,31.95
2023-03-27T18:43:52.629Z,29.47
2023-03-27T18:44:52.608Z,26.93
2023-03-27T18:45:52.628Z,28.53
2023-03-27T18:46:52.583Z,35.22
2023-03-27T18:47:52.657Z,25.00
2023-03-27T18:48:52.567Z,27.19
2023-03-27T18:49:52.593Z,39.87
2023-03-27T18:50:52.572Z,43.50
2023-03-27T18:51:52.571Z,42.64
2023-03-27T18:52:52.558Z,37.60
2023-03-27T18:53:52.531Z,48.09
2023-03-27T18:54:52.519Z,51.87
2023-03-27T18:55:52.557Z,41.73
2023-03-27T18:56:52.604Z,48.03
2023-03-27T18:57:52.555Z,56.48
2023-03-27T18:58:52.529Z,54.61
2023-03-27T18:59:52.525Z,43.93
2023-03-27T19:00:52.552Z,62.06
2023-03-27T19:01:52.512Z,68.99
2023-03-27T19:02:52.569Z,61.19
2023-03-27T19:03:52.474Z,76.88
2023-03-27T19:04:52.453Z,74.85
2023-03-27T19:05:52.526Z,72.56
2023-03-27T19:06:52.449Z,61.33
2023-03-27T19:07:52.450Z,70.13
2023-03-27T19:08:52.427Z,56.80
2023-03-27T19:09:52.438Z,53.61
2023-03-27T19:10:52.502Z,52.11
2023-03-27T19:11:52.536Z,58.71
2023-03-27T19:12:52.602Z,61.35
2023-03-27T19:13:52.670Z,45.79
2023-03-27T19:14:52.709Z,43.98
2023-03-27T19:15:52.751Z,61.42
2023-03-27T19:16:52.823Z,56.95
2023-03-27T19:17:52.932Z,60.29
2023-03-27T19:18:52.920Z,65.26
2023-03-27T19:19:52.961Z,85.36
2023-03-27T19:20:53.017Z,92.94
2023-03-27T19:21:53.076Z,73.36
2023-03-27T19:22:53.140Z,84.95
2023-03-27T19:23:53.192Z,84.40
2023-03-27T19:24:53.241Z,82.36
2023-03-27T19:25:53.308Z,87.51
2023-03-27T19:26:53.347Z,75.11
2023-03-27T19:27:53.420Z,80.11
2023-03-27T19:28:53.472Z,90.27
2023-03-27T19:29:53.524Z,87.46
2023-03-27T19:30:53.601Z,81.45
2023-03-27T19:31:53.645Z,75.77
2023-03-27T19:32:53.729Z,108.53
2023-03-27T19:33:53.770Z,111.19
2023-03-27T19:34:53.824Z,109.89
2023-03-27T19:35:53.908Z,121.59
2023-03-27T19:36:53.929Z,98.90
2023-03-27T19:37:53.964Z,95.31
2023-03-27T19:38:54.034Z,106.34
2023-03-27T19:39:54.127Z,108.80
2023-03-27T19:40:54.158Z,99.11
2023-03-27T19:41:54.204Z,119.30
2023-03-27T19:42:54.259Z,119.85
2023-03-27T19:43:54.371Z,115.33
2023-03-27T19:44:54.381Z,108.95
2023-03-27T19:46:04.301Z,108.37
2023-03-27T19:46:55.468Z,108.89
2023-03-27T19:47:54.470Z,95.62
2023-03-27T19:48:54.410Z,100.78
2023-03-27T19:49:54.435Z,90.89
2023-03-27T19:50:54.457Z,94.32
2023-03-27T19:51:54.389Z,87.00
2023-03-27T19:53:07.394Z,92.82
2023-03-27T19:53:55.424Z,92.56
2023-03-27T19:54:54.372Z,83.50
2023-03-27T19:55:54.357Z,78.19
2023-03-27T19:56:54.407Z,77.74
2023-03-27T19:57:54.329Z,71.37
2023-03-27T19:58:54.337Z,60.80
2023-03-27T19:59:54.342Z,80.51
2023-03-27T20:00:54.348Z,63.54
2023-03-27T20:01:54.500Z,78.84
2023-03-27T20:02:54.515Z,88.75
2023-03-27T20:03:54.702Z,90.63
2023-03-27T20:04:54.613Z,62.86
2023-03-27T20:05:54.676Z,67.52
2023-03-27T20:06:54.734Z,92.15
2023-03-27T20:07:54.803Z,92.38
2023-03-27T20:08:54.862Z,100.51
2023-03-27T20:09:54.917Z,90.91
2023-03-27T20:10:54.994Z,94.38
2023-03-27T20:11:55.107Z,104.73
2023-03-27T20:12:55.108Z,99.73
2023-03-27T20:13:57.075Z,103.93
2023-03-27T20:15:07.559Z,93.03
2023-03-27T20:15:56.302Z,93.10
2023-03-27T20:16:55.223Z,82.88
2023-03-27T20:17:55.309Z,86.84
2023-03-27T20:18:55.330Z,67.07
2023-03-27T20:19:55.183Z,93.57
2023-03-27T20:20:55.205Z,114.32
2023-03-27T20:21:55.169Z,91.75
2023-03-27T20:22:57.999Z,97.48
2023-03-27T20:23:55.176Z,74.89
2023-03-27T20:24:55.147Z,85.39
2023-03-27T20:25:55.160Z,65.37
2023-03-27T20:26:55.132Z,70.44
2023-03-27T20:27:55.125Z,74.56
2023-03-27T20:28:55.138Z,61.30
2023-03-27T20:29:55.114Z,70.35
2023-03-27T20:30:55.148Z,80.65
2023-03-27T20:31:55.154Z,70.75
2023-03-27T20:32:55.151Z,56.55
2023-03-27T20:33:55.099Z,54.28
2023-03-27T20:34:55.074Z,58.83
2023-03-27T20:35:55.109Z,69.19
2023-03-27T20:36:55.057Z,68.37
2023-03-27T20:37:55.065Z,42.17
2023-03-27T20:38:55.048Z,53.92
2023-03-27T20:39:55.058Z,59.85
2023-03-27T20:40:55.040Z,41.51
2023-03-27T20:41:55.040Z,56.57
2023-03-27T20:42:55.022Z,64.06
2023-03-27T20:43:55.041Z,66.36
2023-03-27T20:44:55.073Z,71.86
2023-03-27T20:45:55.099Z,44.29
2023-03-27T20:46:56.467Z,32.41
2023-03-27T20:47:55.019Z,42.93
2023-03-27T20:48:55.171Z,36.23
2023-03-27T20:49:54.979Z,33.75
2023-03-27T20:50:54.956Z,25.00
2023-03-27T20:51:54.950Z,33.37
2023-03-27T20:52:54.943Z,25.00
2023-03-27T20:53:54.930Z,25.00
2023-03-27T20:54:54.946Z,71.88
2023-03-27T20:55:59.671Z,93.89
2023-03-27T20:56:55.961Z,70.86
2023-03-27T20:57:54.924Z,58.20
2023-03-27T20:58:54.957Z,61.46
2023-03-27T20:59:54.949Z,57.97
2023-03-27T21:00:54.960Z,55.06
2023-03-27T21:01:54.981Z,44.98
2023-03-27T21:02:55.030Z,42.40
2023-03-27T21:03:54.897Z,50.31
2023-03-27T21:04:54.904Z,44.13
2023-03-27T21:05:54.881Z,60.20
2023-03-27T21:06:55.000Z,63.84
2023-03-27T21:07:55.004Z,81.40
2023-03-27T21:08:55.041Z,55.04
2023-03-27T21:09:55.207Z,60.29
2023-03-27T21:10:55.160Z,46.61
2023-03-27T21:11:55.333Z,61.89
2023-03-27T21:12:55.303Z,42.65
2023-03-27T21:13:55.302Z,74.77
2023-03-27T21:14:55.342Z,63.16
2023-03-27T21:15:55.421Z,29.60
2023-03-27T21:16:55.560Z,45.15
2023-03-27T21:17:55.539Z,49.39
2023-03-27T21:18:55.604Z,57.00
2023-03-27T21:19:55.672Z,62.62
2023-03-27T21:20:55.734Z,40.00
2023-03-27T21:21:55.783Z,25.00
2023-03-27T21:22:55.853Z,43.40
2023-03-27T21:23:55.906Z,58.42
2023-03-27T21:24:55.981Z,59.29
2023-03-27T21:25:56.023Z,45.49
2023-03-27T21:26:56.094Z,41.03
2023-03-27T21:27:56.133Z,31.08
2023-03-27T21:28:56.186Z,50.15
2023-03-27T21:29:56.257Z,45.57
2023-03-27T21:30:56.322Z,59.40
2023-03-27T21:31:56.468Z,27.49
2023-03-27T21:32:56.510Z,61.49
2023-03-27T21:33:56.480Z,54.80
2023-03-27T21:34:56.538Z,52.74
2023-03-27T21:35:56.640Z,75.62
2023-03-27T21:36:56.630Z,82.84
2023-03-27T21:37:56.640Z,92.22
2023-03-27T21:38:56.698Z,89.62
2023-03-27T21:39:56.763Z,71.87
2023-03-27T21:40:56.795Z,85.44
2023-03-27T21:41:56.870Z,64.31
2023-03-27T21:42:56.891Z,58.06
2023-03-27T21:43:57.124Z,93.99
2023-03-27T21:44:57.458Z,109.33
2023-03-27T21:45:57.202Z,115.21
2023-03-27T21:46:57.105Z,121.61
2023-03-27T21:47:57.150Z,126.01
2023-03-27T21:48:57.181Z,130.85
2023-03-27T21:49:57.249Z,122.68
2023-03-27T21:50:57.298Z,106.11
2023-03-27T21:51:57.351Z,95.33
2023-03-27T21:52:57.402Z,96.38
2023-03-27T21:53:57.482Z,74.11
2023-03-27T21:55:03.193Z,75.04
2023-03-27T21:55:58.792Z,75.25
2023-03-27T21:56:57.562Z,75.88
2023-03-27T21:57:57.506Z,80.70
2023-03-27T21:58:57.601Z,85.40
2023-03-27T21:59:57.574Z,121.15
2023-03-27T22:00:57.599Z,134.00
2023-03-27T22:01:57.485Z,123.56
2023-03-27T22:02:57.491Z,126.33
2023-03-27T22:03:57.496Z,116.00
2023-03-27T22:04:57.610Z,109.44
2023-03-27T22:06:10.713Z,95.77
2023-03-27T22:06:58.607Z,93.13
2023-03-27T22:07:57.592Z,83.11
2023-03-27T22:08:57.600Z,79.70
2023-03-27T22:09:57.607Z,86.00
2023-03-27T22:10:57.583Z,95.79
2023-03-27T22:11:57.572Z,85.73
2023-03-27T22:12:57.542Z,77.35
2023-03-27T22:13:57.544Z,99.61
2023-03-27T22:14:57.574Z,100.12
2023-03-27T22:16:57.651Z,85.23
2023-03-27T22:17:57.719Z,80.17
2023-03-27T22:18:57.746Z,85.98
2023-03-27T22:19:57.802Z,75.25
2023-03-27T22:20:57.886Z,78.82
2023-03-27T22:21:57.914Z,66.34
2023-03-27T22:22:57.962Z,86.07
2023-03-27T22:23:58.063Z,92.41
2023-03-27T22:24:58.051Z,92.30
2023-03-27T22:25:58.272Z,93.77
2023-03-27T22:26:58.147Z,76.00
2023-03-27T22:27:59.524Z,74.65
2023-03-27T22:28:58.197Z,70.29
2023-03-27T22:29:58.211Z,82.32
2023-03-27T22:30:58.266Z,86.30
2023-03-27T22:31:58.172Z,90.31
2023-03-27T22:32:58.194Z,82.70
2023-03-27T22:33:58.184Z,80.89
2023-03-27T22:34:58.164Z,79.21
2023-03-27T22:35:58.376Z,95.01
2023-03-27T22:36:58.146Z,96.25
2023-03-27T22:37:58.127Z,78.75
2023-03-27T22:38:58.138Z,92.85
2023-03-27T22:39:58.135Z,102.93
2023-03-27T22:40:58.126Z,87.83
2023-03-27T22:41:58.109Z,100.24
2023-03-27T22:42:58.105Z,82.83
2023-03-27T22:43:58.126Z,84.10
2023-03-27T22:44:58.092Z,80.75
2023-03-27T22:45:58.263Z,83.68
2023-03-27T22:46:58.108Z,84.74
2023-03-27T22:47:58.134Z,83.28
2023-03-27T22:48:58.072Z,68.56
2023-03-27T22:49:58.048Z,85.00
2023-03-27T22:50:58.042Z,95.22
2023-03-27T22:51:58.030Z,89.38
2023-03-27T22:52:58.033Z,72.74
2023-03-27T22:53:58.047Z,99.75
2023-03-27T22:54:58.073Z,93.78
2023-03-27T22:55:58.260Z,95.06
2023-03-27T22:56:58.067Z,97.62
2023-03-27T22:57:58.006Z,102.95
2023-03-27T22:58:57.981Z,96.11
2023-03-27T22:59:57.975Z,75.79
2023-03-27T23:00:57.985Z,107.45
2023-03-27T23:01:58.028Z,82.01
2023-03-27T23:02:58.058Z,86.87
2023-03-27T23:03:58.076Z,105.30
2023-03-27T23:04:57.955Z,105.59
2023-03-27T23:05:58.131Z,102.96
2023-03-27T23:06:57.928Z,134.66
2023-03-27T23:07:57.948Z,131.14
2023-03-27T23:08:57.959Z,130.79
2023-03-27T23:09:57.924Z,127.25
2023-03-27T23:10:57.929Z,140.01
2023-03-27T23:11:57.933Z,130.91
2023-03-27T23:12:57.972Z,105.47
2023-03-27T23:13:58.028Z,105.72
2023-03-27T23:14:58.053Z,137.17
2023-03-27T23:15:58.422Z,136.12
2023-03-27T23:16:58.168Z,154.77
2023-03-27T23:17:58.193Z,171.71
2023-03-27T23:18:58.217Z,171.50
2023-03-27T23:19:58.242Z,146.59
2023-03-27T23:20:58.281Z,155.61
2023-03-27T23:21:58.323Z,140.18
2023-03-27T23:22:58.340Z,145.85
2023-03-27T23:23:58.386Z,126.29
2023-03-27T23:24:58.406Z,138.17
2023-03-27T23:25:59.049Z,142.35
2023-03-27T23:26:58.494Z,142.70
2023-03-27T23:27:58.505Z,141.48
2023-03-27T23:28:58.568Z,159.96
2023-03-27T23:29:58.573Z,162.52
2023-03-27T23:30:58.609Z,150.93
2023-03-27T23:31:58.726Z,120.99
2023-03-27T23:32:58.754Z,129.49
2023-03-27T23:33:58.748Z,134.89
2023-03-27T23:34:58.775Z,137.10
2023-03-27T23:35:59.057Z,146.22
2023-03-27T23:36:58.884Z,139.00
2023-03-27T23:37:58.874Z,138.93
2023-03-27T23:38:58.900Z,120.75
2023-03-27T23:39:58.920Z,134.94
2023-03-27T23:40:58.959Z,142.93
2023-03-27T23:41:59.000Z,131.02
2023-03-27T23:42:58.997Z,164.29
2023-03-27T23:43:59.033Z,147.55
2023-03-27T23:44:59.064Z,133.24
2023-03-27T23:45:59.590Z,114.42
2023-03-27T23:46:59.107Z,121.54
2023-03-27T23:47:59.203Z,134.49
2023-03-27T23:48:59.176Z,119.55
2023-03-27T23:49:59.210Z,122.16
2023-03-27T23:50:59.272Z,126.39
2023-03-27T23:51:59.305Z,126.34
2023-03-27T23:52:59.310Z,129.24
2023-03-27T23:53:59.320Z,129.86
2023-03-27T23:54:59.349Z,129.48
2023-03-27T23:55:59.582Z,138.60
2023-03-27T23:56:59.519Z,108.39
2023-03-27T23:57:59.447Z,138.24
2023-03-27T23:58:59.482Z,139.98
2023-03-27T23:59:59.485Z,134.84
